createdAt,value
2022-11-20T00:02:27.323Z,24.27
2022-11-20T00:05:28.800Z,18.67
2022-11-20T00:08:30.268Z,20.80
2022-11-20T00:11:33.482Z,20.45
2022-11-20T00:14:34.912Z,23.40
2022-11-20T00:17:36.426Z,24.10
2022-11-20T00:20:37.918Z,19.27
2022-11-20T00:23:39.556Z,18.45
2022-11-20T00:26:41.050Z,19.80
2022-11-20T00:29:43.685Z,20.60
2022-11-20T00:32:45.137Z,20.33
2022-11-20T00:35:46.561Z,20.05
2022-11-20T00:38:51.677Z,20.98
2022-11-20T00:41:53.079Z,20.95
2022-11-20T00:44:54.467Z,21.70
2022-11-20T00:47:55.957Z,21.80
2022-11-20T00:50:57.750Z,19.40
2022-11-20T00:53:59.573Z,18.25
2022-11-20T00:57:00.955Z,19.85
2022-11-20T01:00:02.428Z,20.17
2022-11-20T01:03:03.890Z,22.15
2022-11-20T01:06:08.652Z,21.65
2022-11-20T01:09:14.955Z,26.25
2022-11-20T01:12:16.386Z,21.27
2022-11-20T01:15:17.887Z,20.17
2022-11-20T01:18:19.335Z,23.92
2022-11-20T01:21:24.326Z,23.05
2022-11-20T01:24:25.864Z,24.17
2022-11-20T01:27:27.232Z,21.10
2022-11-20T01:30:29.477Z,23.55
2022-11-20T01:33:30.928Z,20.90
2022-11-20T01:36:34.093Z,23.02
2022-11-20T01:39:35.562Z,25.70
2022-11-20T01:42:37.073Z,24.90
2022-11-20T01:45:58.798Z,27.08
2022-11-20T01:49:08.945Z,27.88
2022-11-20T01:52:17.750Z,28.02
2022-11-20T01:55:26.030Z,25.38
2022-11-20T01:58:33.038Z,31.70
2022-11-20T02:01:35.171Z,35.00
2022-11-20T02:04:36.767Z,29.67
2022-11-20T02:07:38.855Z,30.60
2022-11-20T02:10:40.523Z,26.85
2022-11-20T02:13:42.305Z,31.73
2022-11-20T02:16:48.877Z,22.70
2022-11-20T02:19:50.353Z,29.33
2022-11-20T02:22:58.395Z,28.60
2022-11-20T02:26:04.006Z,34.35
2022-11-20T02:29:05.454Z,26.73
2022-11-20T02:32:07.151Z,30.42
2022-11-20T02:35:20.758Z,28.92
2022-11-20T02:38:22.414Z,22.33
2022-11-20T02:41:32.042Z,25.60
2022-11-20T02:44:33.719Z,22.05
2022-11-20T02:47:35.253Z,24.65
2022-11-20T02:50:40.270Z,29.55
2022-11-20T02:53:41.726Z,29.13
2022-11-20T02:56:43.624Z,28.52
2022-11-20T02:59:45.268Z,24.42
2022-11-20T03:02:46.738Z,29.25
2022-11-20T03:05:48.153Z,30.33
2022-11-20T03:08:49.603Z,26.48
2022-11-20T03:11:51.026Z,26.67
2022-11-20T03:14:53.423Z,26.02
2022-11-20T03:17:55.730Z,26.77
2022-11-20T03:21:00.596Z,26.25
2022-11-20T03:24:02.931Z,25.25
2022-11-20T03:27:04.365Z,25.02
2022-11-20T03:30:06.695Z,27.52
2022-11-20T03:33:08.093Z,27.48
2022-11-20T03:36:12.569Z,27.15
2022-11-20T03:39:14.075Z,25.25
2022-11-20T03:42:15.526Z,24.38
2022-11-20T03:45:18.909Z,24.67
2022-11-20T03:48:20.405Z,26.30
2022-11-20T03:51:23.943Z,27.77
2022-11-20T03:54:25.399Z,27.23
2022-11-20T03:57:26.824Z,29.23
2022-11-20T04:00:28.222Z,30.65
2022-11-20T04:03:29.677Z,28.52
2022-11-20T04:06:35.575Z,29.50
2022-11-20T04:09:37.030Z,32.75
2022-11-20T04:12:38.854Z,30.48
2022-11-20T04:15:40.355Z,29.98
2022-11-20T04:18:41.884Z,29.80
2022-11-20T04:21:44.738Z,28.17
2022-11-20T04:24:46.163Z,32.70
2022-11-20T04:27:47.615Z,34.13
2022-11-20T04:30:49.051Z,33.75
2022-11-20T04:33:50.785Z,35.97
2022-11-20T04:36:52.185Z,31.33
2022-11-20T04:39:53.639Z,34.03
2022-11-20T04:42:55.677Z,34.28
2022-11-20T04:45:58.517Z,32.78
2022-11-20T04:49:00.647Z,37.58
2022-11-20T04:52:02.099Z,32.15
2022-11-20T04:55:03.936Z,30.05
2022-11-20T04:58:05.424Z,26.88
2022-11-20T05:01:10.776Z,28.73
2022-11-20T05:04:12.220Z,28.08
2022-11-20T05:07:13.890Z,40.60
2022-11-20T05:10:15.707Z,32.58
2022-11-20T05:13:17.178Z,41.25
2022-11-20T05:16:23.647Z,35.78
2022-11-20T05:19:25.579Z,29.25
2022-11-20T05:22:27.026Z,31.27
2022-11-20T05:25:28.571Z,38.45
2022-11-20T05:28:31.527Z,37.58
2022-11-20T05:31:33.222Z,33.55
2022-11-20T05:34:34.643Z,42.22
2022-11-20T05:37:36.188Z,40.85
2022-11-20T05:40:37.705Z,40.67
2022-11-20T05:43:41.508Z,42.13
2022-11-20T05:46:42.957Z,42.63
2022-11-20T05:49:44.551Z,37.70
2022-11-20T05:52:45.961Z,39.20
2022-11-20T05:55:47.360Z,35.15
2022-11-20T05:58:49.496Z,43.10
2022-11-20T06:01:50.926Z,46.13
2022-11-20T06:04:52.331Z,36.03
2022-11-20T06:07:53.964Z,44.95
2022-11-20T06:10:55.618Z,47.15
2022-11-20T06:13:57.057Z,48.83
2022-11-20T06:16:58.447Z,42.50
2022-11-20T06:19:59.867Z,37.75
2022-11-20T06:23:01.348Z,46.67
2022-11-20T06:26:08.200Z,39.00
2022-11-20T06:29:09.770Z,46.65
2022-11-20T06:32:11.181Z,37.35
2022-11-20T06:35:12.723Z,50.15
2022-11-20T06:38:14.213Z,35.33
2022-11-20T06:41:18.761Z,41.10
2022-11-20T06:44:21.280Z,46.00
2022-11-20T06:47:22.707Z,44.33
2022-11-20T06:50:24.135Z,37.97
2022-11-20T06:53:26.101Z,34.45
2022-11-20T06:56:27.647Z,40.17
2022-11-20T06:59:29.303Z,34.80
2022-11-20T07:02:30.750Z,39.33
2022-11-20T07:05:32.196Z,39.13
2022-11-20T07:08:34.694Z,47.55
2022-11-20T07:11:36.104Z,30.27
2022-11-20T07:14:37.598Z,35.05
2022-11-20T07:17:39.051Z,39.38
2022-11-20T07:20:40.443Z,39.13
2022-11-20T07:23:42.040Z,32.90
2022-11-20T07:26:43.491Z,33.13
2022-11-20T07:29:44.879Z,32.75
2022-11-20T07:32:53.619Z,35.38
2022-11-20T07:35:55.149Z,33.15
2022-11-20T07:38:56.607Z,38.58
2022-11-20T07:41:58.080Z,36.40
2022-11-20T07:44:59.531Z,36.60
2022-11-20T07:48:01.002Z,32.92
2022-11-20T07:51:02.624Z,30.50
2022-11-20T07:54:04.239Z,34.05
2022-11-20T07:57:05.672Z,37.78
2022-11-20T08:00:08.779Z,34.35
2022-11-20T08:03:20.299Z,29.63
2022-11-20T08:06:26.155Z,30.27
2022-11-20T08:09:27.661Z,33.55
2022-11-20T08:12:30.218Z,29.55
2022-11-20T08:15:32.348Z,33.13
2022-11-20T08:18:35.158Z,36.03
2022-11-20T08:21:38.367Z,30.88
2022-11-20T08:24:40.087Z,32.45
2022-11-20T08:27:41.547Z,33.10
2022-11-20T08:30:42.994Z,30.23
2022-11-20T08:33:44.396Z,32.13
2022-11-20T08:36:45.979Z,27.33
2022-11-20T08:39:47.772Z,32.75
2022-11-20T08:42:51.102Z,31.75
2022-11-20T08:45:52.581Z,30.65
2022-11-20T08:48:54.404Z,32.38
2022-11-20T08:51:55.858Z,30.00
2022-11-20T08:54:57.245Z,25.50
2022-11-20T08:57:58.682Z,34.90
2022-11-20T09:01:00.133Z,30.13
2022-11-20T09:04:01.602Z,31.48
2022-11-20T09:07:03.098Z,32.38
2022-11-20T09:10:23.009Z,30.70
2022-11-20T09:13:27.374Z,30.38
2022-11-20T09:16:28.934Z,32.50
2022-11-20T09:19:37.480Z,28.98
2022-11-20T09:22:40.780Z,30.75
2022-11-20T09:25:43.044Z,24.20
2022-11-20T09:28:44.535Z,32.05
2022-11-20T09:31:46.057Z,27.50
2022-11-20T09:34:47.579Z,27.45
2022-11-20T09:37:50.425Z,24.92
2022-11-20T09:41:03.718Z,24.77
2022-11-20T09:44:26.938Z,30.33
2022-11-20T09:48:05.518Z,26.95
2022-11-20T09:51:31.998Z,34.20
2022-11-20T09:54:38.271Z,31.48
2022-11-20T09:57:47.728Z,29.30
2022-11-20T10:00:50.223Z,29.58
2022-11-20T10:04:06.983Z,28.60
2022-11-20T10:07:36.008Z,29.70
2022-11-20T10:10:50.789Z,28.55
2022-11-20T10:14:16.900Z,30.98
2022-11-20T10:17:33.045Z,31.27
2022-11-20T10:20:56.486Z,34.05
2022-11-20T10:24:03.058Z,31.83
2022-11-20T10:27:18.797Z,29.65
2022-11-20T10:30:21.934Z,31.83
2022-11-20T10:33:29.137Z,31.45
2022-11-20T10:36:47.080Z,28.38
2022-11-20T10:39:57.632Z,30.13
2022-11-20T10:42:59.066Z,27.50
2022-11-20T10:46:16.290Z,31.67
2022-11-20T10:49:20.881Z,31.33
2022-11-20T10:52:27.359Z,29.10
2022-11-20T10:55:34.194Z,32.55
2022-11-20T10:59:03.337Z,32.53
2022-11-20T11:02:21.244Z,30.92
2022-11-20T11:06:00.292Z,34.00
2022-11-20T11:09:09.847Z,30.25
2022-11-20T11:12:12.244Z,33.83
2022-11-20T11:15:25.605Z,37.42
2022-11-20T11:18:29.702Z,33.40
2022-11-20T11:21:31.521Z,34.72
2022-11-20T11:24:48.273Z,36.35
2022-11-20T11:27:51.386Z,40.97
2022-11-20T11:30:52.943Z,35.20
2022-11-20T11:34:15.094Z,42.50
2022-11-20T11:37:21.971Z,35.28
2022-11-20T11:40:24.679Z,39.78
2022-11-20T11:43:32.798Z,47.83
2022-11-20T11:46:37.931Z,42.90
2022-11-20T11:49:39.400Z,41.72
2022-11-20T11:53:15.396Z,47.45
2022-11-20T11:56:17.181Z,45.05
2022-11-20T11:59:55.711Z,44.00
2022-11-20T12:03:16.821Z,43.10
2022-11-20T12:06:18.541Z,43.50
2022-11-20T12:09:25.591Z,43.80
2022-11-20T12:12:37.510Z,46.33
2022-11-20T12:15:45.428Z,44.85
2022-11-20T12:18:50.044Z,46.97
2022-11-20T12:22:27.072Z,44.95
2022-11-20T12:25:33.171Z,45.15
2022-11-20T12:29:12.095Z,47.20
2022-11-20T12:32:16.521Z,49.85
2022-11-20T12:35:48.765Z,42.53
2022-11-20T12:38:56.228Z,44.42
2022-11-20T12:42:24.339Z,48.22
2022-11-20T12:45:55.040Z,45.33
2022-11-20T12:49:03.096Z,45.35
2022-11-20T12:52:23.125Z,45.30
2022-11-20T12:55:43.280Z,48.97
2022-11-20T12:58:54.638Z,44.80
2022-11-20T13:02:03.933Z,45.28
2022-11-20T13:05:20.542Z,46.72
2022-11-20T13:08:32.866Z,46.08
2022-11-20T13:11:46.214Z,49.22
2022-11-20T13:14:56.210Z,51.33
2022-11-20T13:18:03.592Z,48.25
2022-11-20T13:21:19.554Z,58.03
2022-11-20T13:24:22.667Z,56.83
2022-11-20T13:27:24.787Z,58.57
2022-11-20T13:30:30.953Z,64.47
2022-11-20T13:33:37.918Z,68.68
2022-11-20T13:36:51.354Z,60.55
2022-11-20T13:39:52.757Z,69.88
2022-11-20T13:43:02.845Z,60.47
2022-11-20T13:46:09.614Z,71.15
2022-11-20T13:49:31.524Z,67.55
2022-11-20T13:52:59.626Z,66.20
2022-11-20T13:56:26.951Z,67.43
2022-11-20T13:59:57.274Z,79.35
2022-11-20T14:03:17.545Z,65.90
2022-11-20T14:06:29.933Z,78.93
2022-11-20T14:09:33.431Z,73.38
2022-11-20T14:12:35.065Z,78.28
2022-11-20T14:15:40.426Z,86.45
2022-11-20T14:18:44.909Z,94.00
2022-11-20T14:22:13.635Z,88.70
2022-11-20T14:25:15.022Z,88.70
2022-11-20T14:28:26.893Z,82.32
2022-11-20T14:31:29.222Z,82.25
2022-11-20T14:34:33.797Z,86.95
2022-11-20T14:37:39.239Z,83.43
2022-11-20T14:40:40.662Z,83.65
2022-11-20T14:43:46.868Z,77.07
2022-11-20T14:46:48.450Z,87.65
2022-11-20T14:49:52.398Z,86.75
2022-11-20T14:53:01.706Z,85.55
2022-11-20T14:56:04.152Z,88.07
2022-11-20T14:59:05.846Z,84.93
2022-11-20T15:02:10.867Z,77.65
2022-11-20T15:05:12.960Z,88.78
2022-11-20T15:08:15.046Z,96.18
2022-11-20T15:11:26.522Z,102.57
2022-11-20T15:14:31.065Z,82.82
2022-11-20T15:17:32.993Z,100.05
2022-11-20T15:20:36.530Z,78.25
2022-11-20T15:23:37.992Z,91.13
2022-11-20T15:26:39.845Z,84.35
2022-11-20T15:29:42.507Z,103.03
2022-11-20T15:32:45.165Z,82.10
2022-11-20T15:35:46.568Z,85.50
2022-11-20T15:38:48.088Z,89.05
2022-11-20T15:41:49.697Z,77.30
2022-11-20T15:44:51.153Z,81.05
2022-11-20T15:47:52.584Z,91.47
2022-11-20T15:51:12.289Z,71.35
2022-11-20T15:54:15.922Z,81.60
2022-11-20T15:57:17.367Z,71.63
2022-11-20T16:00:23.371Z,79.57
2022-11-20T16:03:25.297Z,63.47
2022-11-20T16:06:26.707Z,75.15
2022-11-20T16:09:28.119Z,71.22
2022-11-20T16:12:29.643Z,61.63
2022-11-20T16:15:31.120Z,65.55
2022-11-20T16:18:33.702Z,55.75
2022-11-20T16:21:35.134Z,58.08
2022-11-20T16:24:36.559Z,63.42
2022-11-20T16:27:37.965Z,58.55
2022-11-20T16:30:40.275Z,60.25
2022-11-20T16:33:42.449Z,56.50
2022-11-20T16:36:44.781Z,49.75
2022-11-20T16:39:46.227Z,66.93
2022-11-20T16:42:47.664Z,57.95
2022-11-20T16:45:49.111Z,51.13
2022-11-20T16:49:01.978Z,50.35
2022-11-20T16:52:03.507Z,44.92
2022-11-20T16:55:05.482Z,59.78
2022-11-20T16:58:06.880Z,50.83
2022-11-20T17:01:10.967Z,50.92
2022-11-20T17:04:12.468Z,47.20
2022-11-20T17:07:13.991Z,56.70
2022-11-20T17:10:15.439Z,59.13
2022-11-20T17:13:16.891Z,53.05
2022-11-20T17:16:20.948Z,48.05
2022-11-20T17:19:22.397Z,45.65
2022-11-20T17:22:23.872Z,46.15
2022-11-20T17:25:25.331Z,44.42
2022-11-20T17:28:26.806Z,43.08
2022-11-20T17:31:30.009Z,41.47
2022-11-20T17:34:31.467Z,49.03
2022-11-20T17:37:32.953Z,48.75
2022-11-20T17:40:34.357Z,56.47
2022-11-20T17:43:36.427Z,52.72
2022-11-20T17:46:38.272Z,45.95
2022-11-20T17:49:39.717Z,44.55
2022-11-20T17:52:41.194Z,41.40
2022-11-20T17:55:42.596Z,40.85
2022-11-20T17:58:44.412Z,40.47
2022-11-20T18:01:45.954Z,79.13
2022-11-20T18:04:47.450Z,48.28
2022-11-20T18:07:52.582Z,46.53
2022-11-20T18:10:54.065Z,62.10
2022-11-20T18:13:58.189Z,45.80
2022-11-20T18:17:11.966Z,43.30
2022-11-20T18:20:28.594Z,42.40
2022-11-20T18:23:33.586Z,40.38
2022-11-20T18:26:38.739Z,39.08
2022-11-20T18:29:43.355Z,41.88
2022-11-20T18:32:44.743Z,41.38
2022-11-20T18:35:46.184Z,40.30
2022-11-20T18:38:49.391Z,40.25
2022-11-20T18:41:50.839Z,40.10
2022-11-20T18:44:52.352Z,38.95
2022-11-20T18:47:53.778Z,46.55
2022-11-20T18:50:55.199Z,41.30
2022-11-20T18:53:56.613Z,46.78
2022-11-20T18:56:58.096Z,42.50
2022-11-20T19:00:04.824Z,38.17
2022-11-20T19:03:08.133Z,41.75
2022-11-20T19:06:15.264Z,42.10
2022-11-20T19:09:16.784Z,51.50
2022-11-20T19:12:19.574Z,46.55
2022-11-20T19:15:21.217Z,47.17
2022-11-20T19:18:22.606Z,51.83
2022-11-20T19:21:25.309Z,47.17
2022-11-20T19:24:27.011Z,63.67
2022-11-20T19:27:28.472Z,56.83
2022-11-20T19:30:29.897Z,52.53
2022-11-20T19:33:32.059Z,60.00
2022-11-20T19:36:39.052Z,51.13
2022-11-20T19:39:43.190Z,59.53
2022-11-20T19:42:44.631Z,50.28
2022-11-20T19:45:46.066Z,52.13
2022-11-20T19:48:47.492Z,56.20
2022-11-20T19:51:49.420Z,60.20
2022-11-20T19:54:50.803Z,58.30
2022-11-20T19:57:52.294Z,49.85
2022-11-20T20:00:54.112Z,58.95
2022-11-20T20:03:57.066Z,57.08
2022-11-20T20:06:58.712Z,58.53
2022-11-20T20:10:00.316Z,70.25
2022-11-20T20:13:01.788Z,69.95
2022-11-20T20:16:06.686Z,66.13
2022-11-20T20:19:11.039Z,62.75
2022-11-20T20:22:12.452Z,63.80
2022-11-20T20:25:13.901Z,51.60
2022-11-20T20:28:15.420Z,63.83
2022-11-20T20:31:20.302Z,61.72
2022-11-20T20:34:21.767Z,84.18
2022-11-20T20:37:23.591Z,72.93
2022-11-20T20:40:25.031Z,74.25
2022-11-20T20:43:26.623Z,65.65
2022-11-20T20:46:28.051Z,71.53
2022-11-20T20:49:29.530Z,65.10
2022-11-20T20:52:31.056Z,66.55
2022-11-20T20:55:32.494Z,76.00
2022-11-20T20:58:33.964Z,67.57
2022-11-20T21:01:35.541Z,75.95
2022-11-20T21:04:37.344Z,65.85
2022-11-20T21:07:38.810Z,83.47
2022-11-20T21:10:40.209Z,64.75
2022-11-20T21:13:43.232Z,84.55
2022-11-20T21:16:44.696Z,79.50
2022-11-20T21:19:46.171Z,97.22
2022-11-20T21:22:47.609Z,82.68
2022-11-20T21:25:49.058Z,89.47
2022-11-20T21:28:50.483Z,80.82
2022-11-20T21:31:52.314Z,86.60
2022-11-20T21:34:53.693Z,76.60
2022-11-20T21:37:55.552Z,72.70
2022-11-20T21:40:57.978Z,77.22
2022-11-20T21:47:22.098Z,66.40
2022-11-20T21:50:23.524Z,76.95
2022-11-20T21:53:24.974Z,76.50
2022-11-20T21:56:26.840Z,76.03
2022-11-20T21:59:28.247Z,90.03
2022-11-20T22:02:29.707Z,94.63
2022-11-20T22:05:31.097Z,96.03
2022-11-20T22:08:35.104Z,85.78
2022-11-20T22:11:36.561Z,90.53
2022-11-20T22:14:37.992Z,89.65
2022-11-20T22:17:39.448Z,70.93
2022-11-20T22:20:41.503Z,80.85
2022-11-20T22:23:43.031Z,99.78
2022-11-20T22:26:44.582Z,92.78
2022-11-20T22:29:46.009Z,81.80
2022-11-20T22:32:47.444Z,82.97
2022-11-20T22:35:48.875Z,84.28
2022-11-20T22:38:50.648Z,75.18
2022-11-20T22:41:52.118Z,99.60
2022-11-20T22:44:53.522Z,94.95
2022-11-20T22:47:54.973Z,98.22
2022-11-20T22:51:13.892Z,90.50
2022-11-20T22:54:15.363Z,86.68
2022-11-20T22:57:16.803Z,92.70
2022-11-20T23:00:18.978Z,93.40
2022-11-20T23:03:20.450Z,98.65
2022-11-20T23:06:22.582Z,90.07
2022-11-20T23:09:24.083Z,88.28
2022-11-20T23:12:25.551Z,96.35
2022-11-20T23:15:27.012Z,101.65
2022-11-20T23:18:28.478Z,95.50
2022-11-20T23:21:29.943Z,90.65
2022-11-20T23:24:31.400Z,98.53
2022-11-20T23:27:32.867Z,105.93
2022-11-20T23:30:34.980Z,95.15
2022-11-20T23:33:38.325Z,86.07
2022-11-20T23:36:39.789Z,91.07
2022-11-20T23:39:41.255Z,83.07
2022-11-20T23:42:42.735Z,76.63
2022-11-20T23:45:46.277Z,73.50
2022-11-20T23:48:47.712Z,91.57
2022-11-20T23:51:49.171Z,92.85
2022-11-20T23:54:50.571Z,85.03
2022-11-20T23:57:52.447Z,98.60
